Time;durP1;ratioP1;P1;durP2;ratioP2;P2;SDS_P1;SDS_P2;PMS_P1;PMS_P2;Temp;Humidity;BMP_temperature;BMP_pressure;BME280_temperature;BME280_humidity;BME280_pressure;Samples;Min_cycle;Max_cycle;Signal;HPM_P1;HPM_P2
2023/03/25 00:01:24;;;;;;;26.33;15.60;;;;;;;12.68;47.44;94631.81;4972207;28;20295;-64
2023/03/25 00:03:52;;;;;;;20.95;14.40;;;;;;;12.78;47.36;94636.88;4969805;28;20224;-68
2023/03/25 00:06:18;;;;;;;24.83;16.00;;;;;;;12.78;47.62;94636.88;4968012;28;20185;-70
2023/03/25 00:08:44;;;;;;;23.77;16.20;;;;;;;12.70;48.00;94634.28;4973590;28;20212;-69
2023/03/25 00:11:10;;;;;;;29.90;15.65;;;;;;;12.67;48.04;94643.38;4968820;28;20244;-68
2023/03/25 00:13:36;;;;;;;33.42;15.10;;;;;;;12.42;48.39;94634.75;4969143;28;20298;-69
2023/03/25 00:16:03;;;;;;;20.60;13.73;;;;;;;12.54;48.36;94640.47;4968608;28;20250;-69
2023/03/25 00:18:33;;;;;;;21.63;13.73;;;;;;;12.55;48.05;94640.28;4971109;28;20223;-64
2023/03/25 00:21:01;;;;;;;19.20;14.10;;;;;;;12.34;48.47;94632.97;5004208;28;20262;-64
2023/03/25 00:23:27;;;;;;;16.15;14.13;;;;;;;12.25;48.78;94630.56;4969361;28;20223;-64
2023/03/25 00:25:55;;;;;;;20.45;13.68;;;;;;;12.26;48.73;94621.66;4993672;28;20224;-69
2023/03/25 00:28:20;;;;;;;16.67;12.23;;;;;;;12.18;48.76;94617.22;4969416;28;20239;-68
2023/03/25 00:30:45;;;;;;;15.43;12.25;;;;;;;12.24;48.34;94624.47;4972982;28;20223;-71
2023/03/25 00:33:12;;;;;;;13.07;11.77;;;;;;;12.03;49.03;94618.91;5002143;28;20185;-68
2023/03/25 00:35:43;;;;;;;16.15;12.75;;;;;;;12.19;48.49;94618.03;4970141;28;20196;-70
2023/03/25 00:38:12;;;;;;;18.43;12.90;;;;;;;12.11;49.06;94617.09;4971535;28;20219;-70
2023/03/25 00:40:39;;;;;;;20.77;13.38;;;;;;;12.02;49.49;94619.94;4968906;28;20319;-69
2023/03/25 00:43:05;;;;;;;17.07;12.77;;;;;;;11.88;49.40;94616.19;4982539;28;20224;-69
2023/03/25 00:45:32;;;;;;;14.38;12.38;;;;;;;12.09;49.07;94624.34;4971433;28;20250;-70
2023/03/25 00:47:58;;;;;;;16.88;12.30;;;;;;;12.03;48.87;94619.78;4971582;28;20219;-69
2023/03/25 00:50:23;;;;;;;27.50;14.07;;;;;;;11.92;49.28;94614.84;4970125;28;20240;-69
2023/03/25 00:52:50;;;;;;;18.40;12.27;;;;;;;12.02;48.84;94612.03;4968248;28;20227;-71
2023/03/25 00:55:16;;;;;;;19.83;12.57;;;;;;;11.92;49.54;94604.31;4961467;28;20220;-66
2023/03/25 00:57:42;;;;;;;17.02;12.27;;;;;;;11.71;49.75;94610.13;4969335;28;20309;-69
2023/03/25 01:00:11;;;;;;;14.20;11.65;;;;;;;11.71;49.84;94610.13;4968247;28;20212;-65
2023/03/25 01:02:38;;;;;;;16.63;13.35;;;;;;;11.68;50.04;94598.13;4970275;28;20200;-69
2023/03/25 01:05:04;;;;;;;15.80;13.10;;;;;;;11.74;49.98;94598.44;4966776;28;20228;-69
2023/03/25 01:07:30;;;;;;;14.15;12.70;;;;;;;11.56;50.40;94594.19;4961341;28;20236;-68
2023/03/25 01:09:57;;;;;;;18.65;12.95;;;;;;;11.61;50.22;94598.94;4965839;28;20283;-67
2023/03/25 01:12:23;;;;;;;13.02;11.68;;;;;;;11.63;49.83;94595.16;4977354;28;20287;-70
2023/03/25 01:14:49;;;;;;;14.90;12.30;;;;;;;11.69;50.04;94593.66;4970427;28;20381;-69
2023/03/25 01:17:15;;;;;;;17.57;12.43;;;;;;;11.56;50.44;94582.84;4975297;28;20290;-68
2023/03/25 01:19:40;;;;;;;17.38;12.93;;;;;;;11.67;50.75;94590.38;4962778;28;20252;-69
2023/03/25 01:22:06;;;;;;;17.90;13.57;;;;;;;11.77;50.02;94583.09;4968044;28;20279;-69
2023/03/25 01:24:32;;;;;;;17.20;12.80;;;;;;;11.76;50.09;94581.47;4972737;28;20275;-65
2023/03/25 01:26:57;;;;;;;18.20;13.20;;;;;;;11.77;50.23;94592.81;4996461;28;20307;-70
2023/03/25 01:29:23;;;;;;;18.93;12.40;;;;;;;11.68;50.43;94578.84;4968312;28;20311;-65
2023/03/25 01:31:49;;;;;;;15.83;12.93;;;;;;;11.69;50.28;94568.13;4970104;28;20232;-70
2023/03/25 01:34:15;;;;;;;17.90;13.30;;;;;;;11.59;50.94;94562.25;4969119;28;20234;-68
2023/03/25 01:36:45;;;;;;;22.43;13.70;;;;;;;11.66;50.44;94565.03;4965318;28;20220;-65
2023/03/25 01:39:11;;;;;;;18.23;13.67;;;;;;;11.62;50.44;94566.34;4992380;28;20239;-64
2023/03/25 01:41:36;;;;;;;17.10;12.40;;;;;;;11.50;50.44;94557.19;4968610;28;20280;-69
2023/03/25 01:44:28;;;;;;;14.63;12.47;;;;;;;11.51;50.30;94562.25;4966658;28;20307;-70
2023/03/25 01:46:55;;;;;;;14.82;13.20;;;;;;;11.57;49.93;94561.56;4961545;28;20269;-69
2023/03/25 01:49:25;;;;;;;17.63;12.67;;;;;;;11.48;50.26;94557.34;4976045;28;20547;-69
2023/03/25 01:52:17;;;;;;;16.67;12.50;;;;;;;11.50;50.46;94555.38;4977808;28;20315;-69
2023/03/25 01:54:44;;;;;;;15.23;12.85;;;;;;;11.47;50.52;94556.53;4950116;28;20241;-68
2023/03/25 01:57:16;;;;;;;18.83;13.63;;;;;;;11.61;50.27;94562.09;4949919;28;20204;-68
2023/03/25 01:59:42;;;;;;;16.27;13.00;;;;;;;11.54;50.17;94554.03;4971410;28;20195;-68
2023/03/25 02:02:09;;;;;;;20.67;13.52;;;;;;;11.49;50.53;94561.59;4970645;28;20223;-68
2023/03/25 02:04:57;;;;;;;17.13;13.60;;;;;;;10.91;52.13;94555.63;4969740;28;20223;-64
2023/03/25 02:07:29;;;;;;;15.43;12.80;;;;;;;11.06;51.67;94552.31;4967083;28;20227;-64
2023/03/25 02:10:00;;;;;;;17.00;13.53;;;;;;;11.24;51.14;94547.69;4971139;28;20226;-64
2023/03/25 02:12:26;;;;;;;18.27;12.93;;;;;;;11.09;51.47;94541.44;4969785;28;20726;-64
2023/03/25 02:14:52;;;;;;;16.23;12.20;;;;;;;10.98;52.28;94551.31;4971167;28;20211;-68
2023/03/25 02:17:20;;;;;;;19.43;13.57;;;;;;;10.85;52.22;94539.66;4965054;28;20255;-69
2023/03/25 02:20:34;;;;;;;21.23;13.53;;;;;;;10.94;51.96;94544.75;4966478;28;20340;-68
2023/03/25 02:23:27;;;;;;;15.93;12.97;;;;;;;10.94;52.18;94544.75;4969277;28;20322;-69
2023/03/25 02:26:20;;;;;;;17.33;12.70;;;;;;;10.63;53.24;94549.03;4972548;28;20891;-64
2023/03/25 02:29:06;;;;;;;13.73;12.33;;;;;;;10.75;52.83;94545.09;4973884;28;20238;-64
2023/03/25 02:31:47;;;;;;;15.70;13.97;;;;;;;10.88;52.40;94542.81;4966617;28;20331;-68
2023/03/25 02:34:34;;;;;;;15.13;13.50;;;;;;;10.92;52.40;94538.03;4966777;28;20220;-64
2023/03/25 02:37:26;;;;;;;15.25;12.90;;;;;;;10.88;52.36;94549.84;4995202;28;21295;-67
2023/03/25 02:39:58;;;;;;;22.63;13.75;;;;;;;10.93;52.54;94542.28;4997868;28;20282;-64
2023/03/25 02:42:32;;;;;;;21.53;14.20;;;;;;;10.92;52.40;94541.47;4963463;28;20224;-68
2023/03/25 02:45:05;;;;;;;24.23;14.43;;;;;;;10.89;52.39;94536.53;4995750;28;20295;-69
2023/03/25 02:47:39;;;;;;;22.77;13.17;;;;;;;10.91;52.15;94539.84;4958794;28;20237;-69
2023/03/25 02:50:14;;;;;;;15.63;13.17;;;;;;;10.75;52.17;94530.13;4944576;28;20299;-69
2023/03/25 02:52:47;;;;;;;15.83;12.23;;;;;;;10.82;51.86;94533.75;4949606;28;20280;-67
2023/03/25 02:55:16;;;;;;;15.17;12.43;;;;;;;10.78;51.54;94535.06;4954974;28;20312;-69
2023/03/25 02:57:46;;;;;;;15.00;13.03;;;;;;;10.87;51.57;94533.25;4954454;28;20221;-70
2023/03/25 03:00:16;;;;;;;14.77;13.23;;;;;;;10.81;52.04;94528.66;4944704;28;20272;-69
2023/03/25 03:03:01;;;;;;;16.83;12.87;;;;;;;10.70;52.83;94531.63;4950628;28;20256;-67
2023/03/25 03:05:39;;;;;;;15.77;12.67;;;;;;;10.74;52.58;94528.47;4993121;28;20225;-67
2023/03/25 03:08:30;;;;;;;13.80;12.43;;;;;;;10.46;53.51;94522.72;4966907;28;20315;-67
2023/03/25 03:11:05;;;;;;;20.30;13.23;;;;;;;10.60;53.03;94522.06;4970809;28;20220;-64
2023/03/25 03:14:05;;;;;;;16.67;12.37;;;;;;;10.55;53.08;94523.53;4962838;28;20228;-69
2023/03/25 03:17:07;;;;;;;17.70;13.37;;;;;;;10.70;52.43;94518.47;4989504;28;20220;-68
2023/03/25 03:19:39;;;;;;;20.60;13.67;;;;;;;10.66;52.43;94527.66;4976256;28;20224;-64
2023/03/25 03:22:35;;;;;;;16.73;12.97;;;;;;;10.59;52.92;94525.69;4998961;28;20224;-66
2023/03/25 03:25:21;;;;;;;18.13;13.33;;;;;;;10.53;53.17;94528.13;4968682;28;20318;-67
2023/03/25 03:28:12;;;;;;;16.93;13.97;;;;;;;10.61;52.71;94525.50;5000139;28;20271;-67
2023/03/25 03:31:16;;;;;;;21.45;13.98;;;;;;;10.37;53.37;94521.06;4988948;28;20232;-66
2023/03/25 03:33:49;;;;;;;16.33;12.90;;;;;;;10.21;54.01;94523.63;4935159;29;20808;-66
2023/03/25 03:36:24;;;;;;;20.67;13.67;;;;;;;10.29;53.69;94535.03;4946809;28;20221;-73
2023/03/25 03:39:06;;;;;;;24.07;14.40;;;;;;;10.21;54.16;94527.09;4937190;29;20220;-66
2023/03/25 03:41:35;;;;;;;17.00;14.10;;;;;;;10.12;54.12;94530.69;4938163;29;20252;-68
2023/03/25 03:44:07;;;;;;;26.57;14.77;;;;;;;10.24;53.85;94536.47;4934112;29;20231;-68
2023/03/25 03:46:32;;;;;;;24.97;13.60;;;;;;;10.22;53.97;94539.25;4950347;28;20221;-70
2023/03/25 03:49:00;;;;;;;17.70;13.73;;;;;;;10.06;54.52;94536.59;4945354;28;20231;-67
2023/03/25 03:51:55;;;;;;;15.47;13.07;;;;;;;9.97;54.72;94537.53;4933706;28;20248;-68
2023/03/25 03:54:28;;;;;;;16.50;12.67;;;;;;;10.05;54.46;94533.16;4895654;29;20197;-68
2023/03/25 03:56:53;;;;;;;17.77;13.63;;;;;;;10.24;54.13;94541.72;4890266;29;20781;-68
2023/03/25 03:59:38;;;;;;;18.33;14.00;;;;;;;10.02;54.26;94537.88;4891993;29;20266;-63
2023/03/25 04:02:13;;;;;;;20.23;14.87;;;;;;;9.86;54.76;94528.16;4892043;29;20254;-68
2023/03/25 04:04:41;;;;;;;25.57;19.07;;;;;;;9.71;55.15;94541.06;4901706;29;20224;-68
2023/03/25 04:07:20;;;;;;;38.03;24.23;;;;;;;9.85;55.05;94537.00;4909096;29;20222;-68
2023/03/25 04:10:20;;;;;;;36.97;25.70;;;;;;;9.90;55.12;94543.44;4897839;29;20241;-64
2023/03/25 04:12:51;;;;;;;34.07;23.87;;;;;;;9.79;55.39;94540.28;4895036;29;20227;-64
2023/03/25 04:15:17;;;;;;;27.77;20.77;;;;;;;9.94;54.96;94542.16;4911814;29;20254;-64
2023/03/25 04:17:43;;;;;;;24.10;20.43;;;;;;;10.05;54.41;94533.16;4911526;29;20277;-69
2023/03/25 04:20:13;;;;;;;28.97;21.30;;;;;;;10.14;54.15;94537.44;4896048;29;20254;-64
2023/03/25 04:22:44;;;;;;;37.20;21.67;;;;;;;9.91;54.99;94541.63;4907725;29;20257;-70
2023/03/25 04:25:10;;;;;;;32.87;20.80;;;;;;;9.97;54.98;94529.66;4892958;29;20235;-67
2023/03/25 04:27:36;;;;;;;30.90;20.87;;;;;;;9.99;54.71;94539.03;4891167;29;20223;-64
2023/03/25 04:30:06;;;;;;;30.73;19.57;;;;;;;9.92;54.79;94532.78;4892795;29;20210;-64
2023/03/25 04:32:33;;;;;;;34.00;18.53;;;;;;;9.91;55.15;94537.19;4948906;28;20225;-64
2023/03/25 04:34:59;;;;;;;24.97;14.97;;;;;;;9.96;54.77;94539.34;4988671;28;20225;-68
2023/03/25 04:37:26;;;;;;;24.77;15.70;;;;;;;10.07;54.64;94538.22;4965994;28;20220;-68
2023/03/25 04:39:58;;;;;;;21.43;15.03;;;;;;;10.01;54.56;94542.31;4970899;28;20222;-67
2023/03/25 04:42:31;;;;;;;24.87;15.23;;;;;;;10.10;54.70;94544.00;4969817;28;20304;-67
2023/03/25 04:44:57;;;;;;;22.10;15.40;;;;;;;10.06;54.57;94541.84;4964582;28;20212;-68
2023/03/25 04:47:24;;;;;;;23.83;16.03;;;;;;;10.13;54.71;94541.03;4997123;28;20227;-69
2023/03/25 04:49:49;;;;;;;25.07;16.10;;;;;;;10.21;54.38;94548.13;4973042;28;20236;-66
2023/03/25 04:52:15;;;;;;;24.23;16.03;;;;;;;10.16;54.41;94543.34;4966721;28;20228;-68
2023/03/25 04:54:41;;;;;;;23.20;15.37;;;;;;;10.16;54.51;94538.09;4964788;28;20227;-68
2023/03/25 04:57:09;;;;;;;23.60;15.03;;;;;;;10.16;54.20;94551.22;4960849;28;20208;-70
2023/03/25 04:59:35;;;;;;;25.23;16.27;;;;;;;10.16;54.60;94553.84;4964795;28;20219;-69
2023/03/25 05:02:01;;;;;;;18.92;15.13;;;;;;;10.13;54.82;94550.72;4965314;28;20319;-64
2023/03/25 05:04:27;;;;;;;23.27;14.45;;;;;;;10.21;54.62;94552.53;4962103;28;20560;-64
2023/03/25 05:06:55;;;;;;;20.93;14.10;;;;;;;10.26;54.24;94545.00;4968810;28;20256;-64
2023/03/25 05:09:21;;;;;;;21.00;14.20;;;;;;;10.27;54.15;94546.66;4967625;28;20188;-64
2023/03/25 05:11:47;;;;;;;18.03;13.30;;;;;;;10.28;54.21;94549.13;4963918;28;20188;-67
2023/03/25 05:14:15;;;;;;;17.92;14.18;;;;;;;10.23;54.27;94542.69;4968574;28;20228;-64
2023/03/25 05:16:41;;;;;;;16.77;14.27;;;;;;;10.28;54.18;94546.50;4962560;28;20248;-68
2023/03/25 05:19:07;;;;;;;22.23;14.37;;;;;;;10.39;53.92;94548.00;4995161;28;20271;-68
2023/03/25 05:21:37;;;;;;;22.38;14.88;;;;;;;10.31;54.21;94545.38;4968986;28;20220;-69
2023/03/25 05:24:07;;;;;;;18.05;14.82;;;;;;;10.38;54.18;94549.00;4968140;28;20184;-69
2023/03/25 05:26:36;;;;;;;24.20;15.37;;;;;;;10.50;54.08;94546.88;4963363;28;20231;-64
2023/03/25 05:29:07;;;;;;;17.70;14.03;;;;;;;10.45;53.93;94542.13;4971537;28;20351;-68
2023/03/25 05:31:33;;;;;;;20.52;13.98;;;;;;;10.59;53.39;94545.91;4964307;28;20243;-67
2023/03/25 05:33:58;;;;;;;15.87;13.37;;;;;;;10.60;53.00;94542.28;4971195;28;20649;-69
2023/03/25 05:36:24;;;;;;;18.60;13.30;;;;;;;10.82;52.79;94549.53;4977725;28;20230;-67
2023/03/25 05:38:53;;;;;;;15.23;12.73;;;;;;;10.79;52.80;94546.41;4965050;28;20295;-68
2023/03/25 05:41:19;;;;;;;16.10;11.30;;;;;;;10.85;52.64;94545.72;4965367;28;20220;-69
2023/03/25 05:43:49;;;;;;;13.47;11.77;;;;;;;10.80;52.57;94548.06;4995501;28;20295;-69
2023/03/25 05:46:17;;;;;;;15.27;11.90;;;;;;;11.01;52.13;94545.75;4959846;28;20217;-65
2023/03/25 05:48:44;;;;;;;15.77;12.07;;;;;;;11.07;52.38;94546.06;4966925;28;20228;-65
2023/03/25 05:51:16;;;;;;;18.07;13.43;;;;;;;11.15;52.64;94546.06;4979421;28;20236;-71
2023/03/25 05:53:48;;;;;;;16.63;13.52;;;;;;;11.23;52.63;94546.06;4978121;28;20186;-71
2023/03/25 05:56:16;;;;;;;20.20;13.95;;;;;;;11.30;52.85;94543.56;4965677;28;20252;-71
2023/03/25 05:58:43;;;;;;;17.70;13.00;;;;;;;11.26;52.71;94548.34;4990991;28;20224;-65
2023/03/25 06:01:10;;;;;;;16.47;13.03;;;;;;;11.35;52.09;94549.97;4967860;28;20636;-69
2023/03/25 06:03:35;;;;;;;21.60;14.07;;;;;;;11.39;52.40;94550.47;4991484;28;20227;-71
2023/03/25 06:06:04;;;;;;;23.37;13.97;;;;;;;11.39;52.31;94540.75;4967095;28;20184;-68
2023/03/25 06:08:30;;;;;;;16.73;13.38;;;;;;;11.43;52.79;94549.13;4961263;28;20247;-67
2023/03/25 06:10:59;;;;;;;21.63;14.30;;;;;;;11.59;52.21;94545.63;4958526;28;20224;-68
2023/03/25 06:13:26;;;;;;;17.30;11.97;;;;;;;11.65;51.39;94544.94;4997105;28;20307;-69
2023/03/25 06:15:55;;;;;;;16.05;12.52;;;;;;;11.68;50.70;94547.22;4964198;28;20224;-68
2023/03/25 06:18:23;;;;;;;19.50;12.85;;;;;;;11.80;50.52;94543.25;4964235;28;20210;-70
2023/03/25 06:20:50;;;;;;;14.57;9.93;;;;;;;11.90;49.71;94535.19;4995031;28;20204;-69
2023/03/25 06:23:16;;;;;;;11.05;9.43;;;;;;;11.98;48.24;94529.88;4996673;28;20231;-67
2023/03/25 06:25:42;;;;;;;13.73;10.10;;;;;;;12.08;47.77;94535.75;4967172;28;20296;-69
2023/03/25 06:28:07;;;;;;;13.23;9.73;;;;;;;12.16;47.79;94534.84;4966863;28;20219;-69
2023/03/25 06:30:32;;;;;;;15.88;10.57;;;;;;;12.24;47.52;94536.63;4969434;28;20228;-65
2023/03/25 06:33:01;;;;;;;13.60;9.80;;;;;;;12.34;47.53;94538.06;4967946;28;20192;-65
2023/03/25 06:35:27;;;;;;;16.20;9.77;;;;;;;12.41;47.48;94537.38;4964052;28;20255;-65
2023/03/25 06:37:52;;;;;;;18.05;11.07;;;;;;;12.45;47.80;94543.94;4993507;28;20232;-69
2023/03/25 06:40:18;;;;;;;14.48;12.10;;;;;;;12.45;48.27;94541.28;4965963;28;20224;-69
2023/03/25 06:42:44;;;;;;;16.67;12.77;;;;;;;12.56;48.09;94540.88;4967817;28;20292;-70
2023/03/25 06:45:11;;;;;;;18.65;13.10;;;;;;;12.61;48.21;94545.63;4963155;28;20197;-70
2023/03/25 06:47:37;;;;;;;16.80;12.98;;;;;;;12.60;48.36;94541.38;4960366;28;20184;-65
2023/03/25 06:50:03;;;;;;;16.48;13.15;;;;;;;12.63;48.32;94544.47;4967545;28;20245;-69
2023/03/25 06:52:28;;;;;;;20.42;14.48;;;;;;;12.66;48.23;94546.75;4970487;28;20215;-69
2023/03/25 06:54:53;;;;;;;18.65;13.75;;;;;;;12.74;48.38;94548.50;4965802;28;20220;-67
2023/03/25 06:57:19;;;;;;;17.73;13.73;;;;;;;12.71;48.39;94548.88;4965577;28;20567;-65
2023/03/25 06:59:46;;;;;;;17.02;13.73;;;;;;;12.77;47.96;94550.78;4968450;28;20188;-70
2023/03/25 07:02:12;;;;;;;20.63;14.73;;;;;;;12.71;48.30;94548.88;4978334;28;20231;-70
2023/03/25 07:04:38;;;;;;;17.42;14.68;;;;;;;12.70;48.37;94547.25;4972990;28;20232;-71
2023/03/25 07:07:04;;;;;;;16.52;14.82;;;;;;;12.71;48.42;94552.31;4971328;28;20215;-71
2023/03/25 07:09:30;;;;;;;17.15;14.13;;;;;;;12.57;48.78;94547.81;4971036;28;20304;-70
2023/03/25 07:11:55;;;;;;;17.30;13.30;;;;;;;12.65;48.90;94554.84;4966009;28;20216;-70
2023/03/25 07:14:21;;;;;;;16.80;13.55;;;;;;;12.77;48.75;94546.34;4971647;28;20224;-69
2023/03/25 07:16:46;;;;;;;18.10;14.73;;;;;;;12.79;48.91;94544.34;4972099;28;20278;-69
2023/03/25 07:19:12;;;;;;;17.83;14.52;;;;;;;12.95;48.70;94542.56;4969903;28;20224;-63
2023/03/25 07:21:37;;;;;;;18.48;14.32;;;;;;;12.99;48.65;94539.41;4955342;28;20228;-63
2023/03/25 07:24:03;;;;;;;18.42;15.02;;;;;;;13.07;48.62;94541.16;4954648;28;20208;-66
2023/03/25 07:26:28;;;;;;;19.50;15.00;;;;;;;13.13;48.47;94532.53;4958142;28;20188;-63
2023/03/25 07:28:53;;;;;;;17.88;14.52;;;;;;;13.26;48.63;94547.78;4960243;28;20263;-64
2023/03/25 07:31:19;;;;;;;17.67;14.73;;;;;;;13.26;48.62;94550.44;4962011;28;20228;-65
2023/03/25 07:33:44;;;;;;;19.35;14.88;;;;;;;12.84;49.22;94548.28;4955578;28;20225;-64
2023/03/25 07:36:11;;;;;;;18.77;14.75;;;;;;;12.68;49.75;94542.13;4956849;28;20274;-64
2023/03/25 07:38:37;;;;;;;18.23;14.05;;;;;;;12.75;50.13;94543.06;4959067;28;20211;-64
2023/03/25 07:41:07;;;;;;;18.90;14.07;;;;;;;13.12;49.09;94541.44;4955889;28;20224;-63
2023/03/25 07:43:33;;;;;;;17.92;14.68;;;;;;;13.28;48.50;94543.13;4959311;28;20249;-64
2023/03/25 07:45:58;;;;;;;16.90;14.27;;;;;;;13.47;47.73;94541.78;4958676;28;20315;-65
2023/03/25 07:48:24;;;;;;;18.13;14.77;;;;;;;13.47;47.60;94539.13;4961805;28;20278;-65
2023/03/25 07:50:50;;;;;;;20.00;14.75;;;;;;;13.59;47.72;94540.34;4957173;28;20372;-63
2023/03/25 07:53:16;;;;;;;18.58;14.45;;;;;;;13.71;47.31;94535.41;4988500;28;20224;-64
2023/03/25 07:55:44;;;;;;;19.65;15.50;;;;;;;13.88;46.67;94525.50;4961432;28;20472;-66
2023/03/25 07:58:10;;;;;;;24.98;15.02;;;;;;;13.83;46.69;94519.94;4958702;28;20244;-66
2023/03/25 08:00:35;;;;;;;21.95;15.30;;;;;;;13.94;46.49;94523.94;4987515;28;20310;-67
2023/03/25 08:03:01;;;;;;;20.33;15.27;;;;;;;14.07;46.28;94519.63;4954592;28;20199;-69
2023/03/25 08:05:26;;;;;;;20.52;15.15;;;;;;;13.94;46.52;94519.47;4956925;28;20224;-69
2023/03/25 08:07:52;;;;;;;19.67;16.50;;;;;;;14.09;46.00;94525.53;4955731;28;20319;-69
2023/03/25 08:10:18;;;;;;;15.63;14.13;;;;;;;14.29;45.79;94519.66;4958924;28;20235;-69
2023/03/25 08:12:44;;;;;;;19.02;14.20;;;;;;;14.44;45.64;94503.75;4957582;28;20271;-69
2023/03/25 08:15:11;;;;;;;15.45;13.85;;;;;;;14.53;45.34;94503.47;4987841;28;20197;-70
2023/03/25 08:17:37;;;;;;;18.05;13.85;;;;;;;14.45;45.21;94500.09;4964088;28;20204;-69
2023/03/25 08:20:04;;;;;;;18.23;14.07;;;;;;;14.65;45.32;94500.31;4958142;28;20283;-69
2023/03/25 08:22:31;;;;;;;17.20;12.98;;;;;;;14.81;45.04;94499.22;4959493;28;20243;-69
2023/03/25 08:24:56;;;;;;;16.70;13.90;;;;;;;14.96;44.92;94498.16;4962403;28;20241;-69
2023/03/25 08:27:22;;;;;;;16.23;12.95;;;;;;;15.14;44.33;94486.28;4964781;28;20223;-71
2023/03/25 08:29:53;;;;;;;16.45;12.88;;;;;;;15.28;44.15;94489.84;4967329;28;20191;-69
2023/03/25 08:32:19;;;;;;;17.95;13.85;;;;;;;15.28;43.72;94492.47;4963811;28;20225;-70
2023/03/25 08:34:45;;;;;;;18.48;13.82;;;;;;;15.27;43.55;94496.16;4961009;28;20216;-70
2023/03/25 08:37:12;;;;;;;15.50;13.82;;;;;;;15.21;43.96;94500.41;4959758;28;20224;-69
2023/03/25 08:39:41;;;;;;;16.25;13.15;;;;;;;15.30;43.66;94495.75;4964991;28;20224;-69
2023/03/25 08:42:12;;;;;;;16.27;13.10;;;;;;;15.44;43.46;94485.03;4959966;28;20227;-69
2023/03/25 08:44:38;;;;;;;14.40;12.90;;;;;;;15.45;43.76;94477.94;4963337;28;20188;-69
2023/03/25 08:47:04;;;;;;;18.10;13.48;;;;;;;15.57;43.24;94473.69;4963838;28;20279;-68
2023/03/25 08:49:30;;;;;;;15.25;12.23;;;;;;;15.52;43.34;94475.31;4961492;28;20262;-65
2023/03/25 08:51:57;;;;;;;19.27;12.45;;;;;;;15.52;43.24;94480.59;4961656;28;20239;-65
2023/03/25 08:54:26;;;;;;;16.50;12.88;;;;;;;15.59;43.17;94476.16;4964100;28;20248;-65
2023/03/25 08:56:51;;;;;;;15.10;11.82;;;;;;;15.59;43.25;94473.53;4964336;28;20188;-69
2023/03/25 08:59:17;;;;;;;14.00;11.35;;;;;;;15.62;42.84;94476.59;4963464;28;20307;-69
2023/03/25 09:01:43;;;;;;;17.15;12.50;;;;;;;15.63;43.00;94472.09;4954871;28;20228;-65
2023/03/25 09:04:09;;;;;;;20.80;12.70;;;;;;;15.63;43.06;94472.09;4956949;28;20224;-65
2023/03/25 09:06:35;;;;;;;15.88;11.88;;;;;;;15.66;42.32;94463.75;4963056;28;20220;-64
2023/03/25 09:09:04;;;;;;;13.48;12.10;;;;;;;15.75;42.56;94457.31;4964033;28;20208;-64
2023/03/25 09:11:30;;;;;;;13.65;11.82;;;;;;;15.81;41.87;94448.56;4940189;29;20628;-65
2023/03/25 09:13:56;;;;;;;15.65;11.93;;;;;;;15.95;41.61;94459.22;4971821;28;20247;-65
2023/03/25 09:16:21;;;;;;;17.17;11.68;;;;;;;16.57;40.28;94446.72;4937938;28;20624;-65
2023/03/25 09:18:46;;;;;;;14.85;11.48;;;;;;;16.29;41.23;94443.22;4968616;28;20353;-64
2023/03/25 09:21:12;;;;;;;13.88;10.82;;;;;;;16.57;41.12;94446.72;4972444;28;20185;-64
2023/03/25 09:23:37;;;;;;;12.75;11.07;;;;;;;16.51;40.41;94445.69;4943792;28;20225;-64
2023/03/25 09:26:04;;;;;;;13.90;11.68;;;;;;;16.56;40.78;94445.91;4955798;28;20231;-66
2023/03/25 09:28:30;;;;;;;13.07;9.38;;;;;;;16.62;40.78;94433.66;4963603;28;20512;-66
2023/03/25 09:30:55;;;;;;;13.77;9.90;;;;;;;16.53;40.57;94425.91;4963099;28;20261;-66
2023/03/25 09:33:21;;;;;;;11.90;9.65;;;;;;;16.54;40.96;94429.38;4991472;28;20253;-66
2023/03/25 09:35:48;;;;;;;12.75;10.27;;;;;;;16.85;39.94;94428.00;4995142;28;20187;-65
2023/03/25 09:38:13;;;;;;;11.05;9.70;;;;;;;16.87;39.67;94429.41;4967365;28;20228;-65
2023/03/25 09:40:43;;;;;;;11.45;9.20;;;;;;;16.67;40.40;94423.25;4987542;28;20230;-65
2023/03/25 09:43:15;;;;;;;12.20;9.07;;;;;;;16.62;41.34;94426.50;4986261;28;20307;-65
2023/03/25 09:45:40;;;;;;;13.13;11.68;;;;;;;16.99;40.45;94426.97;4973787;28;20239;-65
2023/03/25 09:48:22;;;;;;;20.35;14.90;;;;;;;17.21;40.29;94430.19;4987075;28;20172;-65
2023/03/25 09:50:48;;;;;;;13.00;9.68;;;;;;;17.48;38.77;94423.00;4975742;28;20247;-65
2023/03/25 09:53:25;;;;;;;10.73;8.88;;;;;;;17.62;38.79;94418.47;4985959;28;20244;-65
2023/03/25 09:55:51;;;;;;;11.27;9.30;;;;;;;17.73;38.45;94414.31;4957897;28;20551;-65
2023/03/25 09:58:29;;;;;;;11.90;8.90;;;;;;;17.89;38.11;94408.56;4958503;28;20232;-65
2023/03/25 10:01:11;;;;;;;9.55;8.57;;;;;;;18.12;37.61;94401.88;4970315;28;20302;-65
2023/03/25 10:03:57;;;;;;;14.05;8.45;;;;;;;18.37;36.67;94408.09;4957047;28;20279;-65
2023/03/25 10:06:25;;;;;;;8.45;7.55;;;;;;;18.16;37.08;94397.78;4989763;28;20219;-65
2023/03/25 10:09:20;;;;;;;11.65;6.75;;;;;;;18.29;36.84;94397.72;4957310;28;20205;-65
2023/03/25 10:11:56;;;;;;;10.38;6.65;;;;;;;18.57;36.11;94401.81;4970472;28;20322;-64
2023/03/25 10:14:25;;;;;;;8.45;6.53;;;;;;;18.51;35.65;94396.31;4958590;28;20641;-65
2023/03/25 10:17:03;;;;;;;8.68;6.30;;;;;;;18.61;35.45;94395.84;4961828;28;20314;-64
2023/03/25 10:19:56;;;;;;;8.00;5.82;;;;;;;18.55;35.21;94385.22;4972051;28;20238;-64
2023/03/25 10:22:29;;;;;;;5.20;4.70;;;;;;;18.64;34.06;94383.94;4955307;28;20227;-64
2023/03/25 10:25:02;;;;;;;5.82;4.60;;;;;;;18.81;33.29;94378.91;4958804;28;20228;-64
2023/03/25 10:27:38;;;;;;;7.95;3.97;;;;;;;18.83;32.90;94369.66;4983274;28;20291;-64
2023/03/25 10:30:18;;;;;;;4.45;3.92;;;;;;;19.00;32.65;94372.59;4958652;28;20187;-64
2023/03/25 10:32:48;;;;;;;5.32;4.03;;;;;;;18.98;31.52;94360.50;4974030;28;20612;-63
2023/03/25 10:35:46;;;;;;;5.95;4.63;;;;;;;19.15;31.71;94357.06;4962968;28;20318;-64
2023/03/25 10:38:20;;;;;;;5.22;3.88;;;;;;;19.32;30.83;94361.81;4927369;29;20228;-65
2023/03/25 10:40:49;;;;;;;4.40;3.78;;;;;;;19.32;31.36;94349.28;4927108;29;20237;-65
2023/03/25 10:43:28;;;;;;;4.85;3.40;;;;;;;19.12;31.04;94340.72;4934039;29;20229;-65
2023/03/25 10:46:11;;;;;;;5.45;4.00;;;;;;;19.69;31.05;94340.50;4926961;29;20239;-67
2023/03/25 10:48:38;;;;;;;4.70;3.70;;;;;;;19.63;30.43;94344.84;4944627;28;20241;-66
2023/03/25 10:51:08;;;;;;;3.88;3.47;;;;;;;19.74;30.08;94328.13;4928930;28;20268;-66
2023/03/25 10:53:35;;;;;;;5.07;3.50;;;;;;;19.77;29.72;94324.19;4946622;29;20189;-65
2023/03/25 10:56:07;;;;;;;4.65;3.13;;;;;;;19.74;29.89;94330.78;4928750;29;20263;-65
2023/03/25 10:58:36;;;;;;;6.78;3.65;;;;;;;19.86;29.90;94330.00;4942100;28;20275;-65
2023/03/25 11:01:10;;;;;;;5.07;3.67;;;;;;;19.93;29.79;94323.56;4928904;29;20224;-65
2023/03/25 11:03:39;;;;;;;4.28;3.80;;;;;;;19.98;30.13;94330.88;4923548;29;20228;-65
2023/03/25 11:06:05;;;;;;;4.20;3.88;;;;;;;20.10;29.53;94313.06;4926038;28;20573;-67
2023/03/25 11:08:31;;;;;;;5.72;3.90;;;;;;;20.17;30.00;94311.09;4926163;29;20200;-68
2023/03/25 11:10:59;;;;;;;4.43;3.60;;;;;;;20.14;29.62;94308.88;4929553;29;20260;-67
2023/03/25 11:13:28;;;;;;;5.82;3.83;;;;;;;20.41;30.17;94297.81;4929594;28;20233;-65
2023/03/25 11:15:56;;;;;;;7.28;3.90;;;;;;;20.48;30.43;94304.66;4954918;28;20271;-68
2023/03/25 11:18:27;;;;;;;4.25;3.53;;;;;;;20.64;30.21;94297.84;4961165;28;20211;-66
2023/03/25 11:21:00;;;;;;;5.78;4.18;;;;;;;20.63;30.14;94296.22;4991325;28;20193;-69
2023/03/25 11:23:51;;;;;;;4.70;4.00;;;;;;;20.60;30.03;94290.53;4978061;28;20287;-69
2023/03/25 11:26:24;;;;;;;5.78;4.05;;;;;;;20.61;30.36;94290.31;4962771;28;20722;-65
2023/03/25 11:28:54;;;;;;;4.93;3.97;;;;;;;20.48;30.50;94288.63;4963095;28;20316;-65
2023/03/25 11:31:26;;;;;;;5.53;3.38;;;;;;;20.44;30.57;94286.66;4963443;28;20219;-69
2023/03/25 11:34:10;;;;;;;6.03;4.38;;;;;;;20.75;29.91;94280.19;4959161;28;20231;-68